Time;durP1;ratioP1;P1;durP2;ratioP2;P2;SDS_P1;SDS_P2;PMS_P1;PMS_P2;Temp;Humidity;BMP_temperature;BMP_pressure;BME280_temperature;BME280_humidity;BME280_pressure;Samples;Min_cycle;Max_cycle;Signal;HPM_P1;HPM_P2
2022/11/28 00:00:52;;;;;;;;;;;;;;;;;;5052002;28;19962;-89
2022/11/28 00:03:18;;;;;;;;;;;;;;;;;;5051984;28;19960;-88
2022/11/28 00:05:43;;;;;;;;;;;;;;;;;;5051525;28;20008;-88
2022/11/28 00:08:09;;;;;;;;;;;;;;;;;;5034319;28;19925;-89
2022/11/28 00:10:37;;;;;;;;;;;;;;;;;;5037336;28;20436;-85
2022/11/28 00:13:03;;;;;;;;;;;;;;;;;;5055410;28;19917;-87
2022/11/28 00:15:28;;;;;;;;;;;;;;;;;;5037455;28;19916;-86
2022/11/28 00:17:53;;;;;;;;;;;;;;;;;;5054956;28;19959;-88
2022/11/28 00:20:19;;;;;;;;;;;;;;;;;;5055246;28;19927;-87
2022/11/28 00:22:44;;;;;;;;;;;;;;;;;;5055012;28;19923;-88
2022/11/28 00:25:10;;;;;;;;;;;;;;;;;;5055076;28;19956;-89
2022/11/28 00:27:36;;;;;;;;;;;;;;;;;;5055087;28;19964;-89
2022/11/28 00:30:01;;;;;;;;;;;;;;;;;;5054936;28;19921;-89
2022/11/28 00:32:27;;;;;;;;;;;;;;;;;;5056688;28;19917;-86
2022/11/28 00:34:52;;;;;;;;;;;;;;;;;;5056596;28;19917;-87
2022/11/28 00:37:17;;;;;;;;;;;;;;;;;;5055146;28;19948;-88
2022/11/28 00:39:43;;;;;;;;;;;;;;;;;;5037007;28;19917;-89
2022/11/28 00:42:08;;;;;;;;;;;;;;;;;;5037104;28;19917;-88
2022/11/28 00:44:34;;;;;;;;;;;;;;;;;;5055185;28;19917;-87
2022/11/28 00:46:59;;;;;;;;;;;;;;;;;;5055007;28;20376;-88
2022/11/28 00:49:24;;;;;;;;;;;;;;;;;;5055467;28;19924;-90
2022/11/28 00:51:50;;;;;;;;;;;;;;;;;;5056257;28;20007;-87
2022/11/28 00:54:15;;;;;;;;;;;;;;;;;;5053486;28;19905;-83
2022/11/28 00:56:41;;;;;;;;;;;;;;;;;;5079569;28;19905;-86
2022/11/28 00:59:07;;;;;;;;;;;;;;;;;;5072876;28;20011;-89
2022/11/28 01:01:37;;;;;;;;;;;;;;;;;;5066065;28;19917;-88
2022/11/28 01:04:03;;;;;;;;;;;;;;;;;;5055156;28;19917;-87
2022/11/28 01:06:30;;;;;;;;;;;;;;;;;;5037014;28;20296;-89
2022/11/28 01:09:00;;;;;;;;;;;;;;;;;;5054598;28;19917;-89
2022/11/28 01:11:25;;;;;;;;;;;;;;;;;;5036523;28;20434;-89
2022/11/28 01:13:53;;;;;;;;;;;;;;;;;;5036496;28;19952;-90
2022/11/28 01:16:18;;;;;;;;;;;;;;;;;;5054339;28;20412;-86
2022/11/28 01:18:44;;;;;;;;;;;;;;;;;;5054011;28;19917;-88
2022/11/28 01:21:09;;;;;;;;;;;;;;;;;;5053150;28;19920;-88
2022/11/28 01:23:35;;;;;;;;;;;;;;;;;;5054386;28;19948;-89
2022/11/28 01:26:03;;;;;;;;;;;;;;;;;;5035960;28;19917;-88
2022/11/28 01:28:28;;;;;;;;;;;;;;;;;;5036245;28;20266;-87
2022/11/28 01:30:53;;;;;;;;;;;;;;;;;;5035835;28;19924;-87
2022/11/28 01:33:19;;;;;;;;;;;;;;;;;;5053874;28;19921;-87
2022/11/28 01:35:54;;;;;;;;;;;;;;;;;;5053864;28;19917;-88
2022/11/28 01:38:20;;;;;;;;;;;;;;;;;;5053723;28;19928;-86
2022/11/28 01:40:46;;;;;;;;;;;;;;;;;;5053881;28;20352;-87
2022/11/28 01:43:12;;;;;;;;;;;;;;;;;;5053696;28;19928;-88
2022/11/28 01:45:39;;;;;;;;;;;;;;;;;;5053845;28;19923;-90
2022/11/28 01:48:05;;;;;;;;;;;;;;;;;;5053458;28;19943;-87
2022/11/28 01:50:31;;;;;;;;;;;;;;;;;;5053837;28;19956;-89
2022/11/28 01:53:00;;;;;;;;;;;;;;;;;;5053769;28;19920;-88
2022/11/28 01:55:28;;;;;;;;;;;;;;;;;;5035796;28;19917;-88
2022/11/28 01:57:54;;;;;;;;;;;;;;;;;;5053608;28;19939;-87
2022/11/28 02:00:20;;;;;;;;;;;;;;;;;;5053746;28;19921;-88
2022/11/28 02:02:47;;;;;;;;;;;;;;;;;;5053244;28;19917;-89
2022/11/28 02:05:14;;;;;;;;;;;;;;;;;;5053422;28;19921;-88
2022/11/28 02:07:40;;;;;;;;;;;;;;;;;;5052872;28;19924;-89
2022/11/28 02:10:06;;;;;;;;;;;;;;;;;;5053381;28;19923;-90
2022/11/28 02:12:50;;;;;;;;;;;;;;;;;;5053137;28;19912;-89
2022/11/28 02:15:22;;;;;;;;;;;;;;;;;;5053266;28;20376;-88
2022/11/28 02:18:05;;;;;;;;;;;;;;;;;;5053262;28;20020;-87
2022/11/28 02:20:54;;;;;;;;;;;;;;;;;;5053407;28;19937;-90
2022/11/28 02:23:39;;;;;;;;;;;;;;;;;;5053331;28;19970;-88
2022/11/28 02:26:10;;;;;;;;;;;;;;;;;;5052887;28;19917;-88
2022/11/28 02:28:54;;;;;;;;;;;;;;;;;;5052809;28;20007;-90
2022/11/28 02:31:38;;;;;;;;;;;;;;;;;;5052606;28;19921;-86
2022/11/28 02:34:08;;;;;;;;;;;;;;;;;;5052545;28;19924;-89
2022/11/28 02:36:39;;;;;;;;;;;;;;;;;;5053147;28;19963;-91
2022/11/28 02:39:10;;;;;;;;;;;;;;;;;;5052777;28;19917;-88
2022/11/28 02:41:42;;;;;;;;;;;;;;;;;;5052858;28;19917;-89
2022/11/28 02:44:10;;;;;;;;;;;;;;;;;;5034782;28;19928;-88
2022/11/28 02:46:38;;;;;;;;;;;;;;;;;;5034500;28;19943;-88
2022/11/28 02:49:05;;;;;;;;;;;;;;;;;;5052579;28;19921;-87
2022/11/28 02:51:39;;;;;;;;;;;;;;;;;;5052712;28;19917;-87
2022/11/28 02:54:06;;;;;;;;;;;;;;;;;;5034639;28;19924;-90
2022/11/28 02:56:32;;;;;;;;;;;;;;;;;;5034628;28;19916;-88
2022/11/28 02:58:57;;;;;;;;;;;;;;;;;;5034885;28;20019;-87
2022/11/28 03:01:34;;;;;;;;;;;;;;;;;;5052513;28;19917;-88
2022/11/28 03:04:26;;;;;;;;;;;;;;;;;;5052540;28;19921;-87
2022/11/28 03:06:57;;;;;;;;;;;;;;;;;;5048328;28;19921;-87
2022/11/28 03:09:41;;;;;;;;;;;;;;;;;;5052687;28;19998;-89
2022/11/28 03:12:25;;;;;;;;;;;;;;;;;;5052413;28;19929;-87
2022/11/28 03:14:50;;;;;;;;;;;;;;;;;;5052384;28;19928;-89
2022/11/28 03:17:21;;;;;;;;;;;;;;;;;;5052488;28;19917;-89
2022/11/28 03:19:53;;;;;;;;;;;;;;;;;;5034561;28;19994;-88
2022/11/28 03:22:32;;;;;;;;;;;;;;;;;;5052032;28;19924;-87
2022/11/28 03:25:04;;;;;;;;;;;;;;;;;;5052315;28;19939;-86
2022/11/28 03:27:34;;;;;;;;;;;;;;;;;;5034430;28;19924;-90
2022/11/28 03:30:02;;;;;;;;;;;;;;;;;;5052168;28;19928;-88
2022/11/28 03:32:32;;;;;;;;;;;;;;;;;;5052417;28;19917;-89
2022/11/28 03:35:10;;;;;;;;;;;;;;;;;;5052081;28;19956;-89
2022/11/28 03:37:39;;;;;;;;;;;;;;;;;;5052434;28;19923;-88
2022/11/28 03:40:07;;;;;;;;;;;;;;;;;;5034251;28;19943;-90
2022/11/28 03:42:35;;;;;;;;;;;;;;;;;;5034621;28;20330;-88
2022/11/28 03:45:09;;;;;;;;;;;;;;;;;;5054726;28;20376;-90
2022/11/28 03:47:39;;;;;;;;;;;;;;;;;;5055817;28;19917;-89
2022/11/28 03:50:07;;;;;;;;;;;;;;;;;;5055938;28;19921;-89
2022/11/28 03:52:35;;;;;;;;;;;;;;;;;;5055716;28;19917;-90
2022/11/28 03:55:03;;;;;;;;;;;;;;;;;;5055919;28;20050;-88
2022/11/28 03:57:54;;;;;;;;;;;;;;;;;;5037831;28;20354;-88
2022/11/28 04:00:20;;;;;;;;;;;;;;;;;;5056253;28;19920;-86
2022/11/28 04:02:48;;;;;;;;;;;;;;;;;;5056039;28;20019;-88
2022/11/28 04:05:17;;;;;;;;;;;;;;;;;;5055452;28;19916;-88
2022/11/28 04:07:43;;;;;;;;;;;;;;;;;;5055398;28;20341;-90
2022/11/28 04:10:19;;;;;;;;;;;;;;;;;;5037676;28;19999;-89
2022/11/28 04:12:47;;;;;;;;;;;;;;;;;;5037624;28;19921;-89
2022/11/28 04:15:36;;;;;;;;;;;;;;;;;;5055547;28;19944;-90
2022/11/28 04:18:07;;;;;;;;;;;;;;;;;;5045517;28;19979;-88
2022/11/28 04:20:53;;;;;;;;;;;;;;;;;;5060117;28;19925;-87
2022/11/28 04:23:20;;;;;;;;;;;;;;;;;;5042964;28;19917;-90
2022/11/28 04:25:49;;;;;;;;;;;;;;;;;;5061156;28;19943;-89
2022/11/28 04:28:18;;;;;;;;;;;;;;;;;;5040982;28;20371;-90
2022/11/28 04:30:45;;;;;;;;;;;;;;;;;;5055375;28;19921;-90
2022/11/28 04:33:12;;;;;;;;;;;;;;;;;;5055028;28;19921;-90
2022/11/28 04:35:40;;;;;;;;;;;;;;;;;;5054791;28;19947;-90
2022/11/28 04:38:06;;;;;;;;;;;;;;;;;;5055177;28;20356;-88
2022/11/28 04:40:33;;;;;;;;;;;;;;;;;;5055989;28;19917;-88
2022/11/28 04:43:01;;;;;;;;;;;;;;;;;;5042759;28;19917;-87
2022/11/28 04:45:38;;;;;;;;;;;;;;;;;;5061886;28;19916;-87
2022/11/28 04:48:04;;;;;;;;;;;;;;;;;;5051645;28;19935;-84
2022/11/28 04:51:01;;;;;;;;;;;;;;;;;;5071779;28;19921;-87
2022/11/28 04:53:31;;;;;;;;;;;;;;;;;;5044675;28;19944;-87
2022/11/28 04:56:02;;;;;;;;;;;;;;;;;;5065223;28;19953;-85
2022/11/28 04:58:33;;;;;;;;;;;;;;;;;;5043568;28;20019;-85
2022/11/28 05:01:00;;;;;;;;;;;;;;;;;;5055184;28;20004;-84
2022/11/28 05:03:26;;;;;;;;;;;;;;;;;;5054857;28;19916;-85
2022/11/28 05:05:52;;;;;;;;;;;;;;;;;;5054390;28;20376;-87
2022/11/28 05:08:18;;;;;;;;;;;;;;;;;;5054482;28;19961;-83
2022/11/28 05:10:43;;;;;;;;;;;;;;;;;;5054217;28;19923;-86
2022/11/28 05:13:09;;;;;;;;;;;;;;;;;;5056931;28;19919;-85
2022/11/28 05:15:34;;;;;;;;;;;;;;;;;;5058082;28;19948;-88
2022/11/28 05:18:00;;;;;;;;;;;;;;;;;;5038361;28;20010;-88
2022/11/28 05:20:26;;;;;;;;;;;;;;;;;;5054753;28;19917;-88
2022/11/28 05:22:51;;;;;;;;;;;;;;;;;;5054595;28;19917;-90
2022/11/28 05:25:16;;;;;;;;;;;;;;;;;;5054517;28;19916;-89
2022/11/28 05:27:42;;;;;;;;;;;;;;;;;;5054671;28;19939;-87
2022/11/28 05:30:08;;;;;;;;;;;;;;;;;;5054046;28;20283;-88
2022/11/28 05:32:35;;;;;;;;;;;;;;;;;;5034097;28;19970;-88
2022/11/28 05:35:00;;;;;;;;;;;;;;;;;;5034290;28;20399;-89
2022/11/28 05:37:26;;;;;;;;;;;;;;;;;;5034201;28;19972;-88
2022/11/28 05:39:51;;;;;;;;;;;;;;;;;;5034282;28;20403;-88
2022/11/28 05:42:16;;;;;;;;;;;;;;;;;;5034342;28;19917;-90
2022/11/28 05:44:42;;;;;;;;;;;;;;;;;;5034289;28;19995;-90
2022/11/28 05:47:07;;;;;;;;;;;;;;;;;;5034329;28;19978;-87
2022/11/28 05:49:33;;;;;;;;;;;;;;;;;;5033899;28;19943;-87
2022/11/28 05:51:58;;;;;;;;;;;;;;;;;;5034003;28;19924;-89
2022/11/28 05:54:24;;;;;;;;;;;;;;;;;;5033772;28;19971;-88
2022/11/28 05:56:49;;;;;;;;;;;;;;;;;;5034074;28;19925;-90
2022/11/28 05:59:15;;;;;;;;;;;;;;;;;;5034131;28;19919;-89
2022/11/28 06:01:40;;;;;;;;;;;;;;;;;;5041078;28;19917;-91
2022/11/28 06:04:05;;;;;;;;;;;;;;;;;;5053496;28;20298;-87
2022/11/28 06:06:32;;;;;;;;;;;;;;;;;;5046474;28;19920;-89
2022/11/28 06:08:58;;;;;;;;;;;;;;;;;;5053196;28;20261;-89
2022/11/28 06:11:24;;;;;;;;;;;;;;;;;;5053178;28;19920;-90
2022/11/28 06:13:50;;;;;;;;;;;;;;;;;;5052870;28;19974;-90
2022/11/28 06:16:16;;;;;;;;;;;;;;;;;;5053414;28;19978;-88
2022/11/28 06:18:42;;;;;;;;;;;;;;;;;;5052788;28;19969;-87
2022/11/28 06:21:08;;;;;;;;;;;;;;;;;;5053268;28;19920;-88
2022/11/28 06:23:34;;;;;;;;;;;;;;;;;;5052983;28;19917;-87
2022/11/28 06:26:07;;;;;;;;;;;;;;;;;;5052926;28;19989;-88
2022/11/28 06:28:32;;;;;;;;;;;;;;;;;;5052677;28;19917;-87
2022/11/28 06:30:58;;;;;;;;;;;;;;;;;;5052602;28;19917;-88
2022/11/28 06:33:23;;;;;;;;;;;;;;;;;;5052663;28;20014;-87
2022/11/28 06:35:49;;;;;;;;;;;;;;;;;;5052526;28;19920;-89
2022/11/28 06:38:14;;;;;;;;;;;;;;;;;;5052731;28;20024;-88
2022/11/28 06:40:40;;;;;;;;;;;;;;;;;;5052418;28;20558;-83
2022/11/28 06:43:05;;;;;;;;;;;;;;;;;;5052539;28;19921;-83
2022/11/28 06:45:34;;;;;;;;;;;;;;;;;;5034360;28;20388;-83
2022/11/28 06:47:59;;;;;;;;;;;;;;;;;;5052210;28;19920;-84
2022/11/28 06:50:25;;;;;;;;;;;;;;;;;;5052292;28;19943;-88
2022/11/28 06:52:52;;;;;;;;;;;;;;;;;;5052276;28;19925;-88
2022/11/28 06:55:18;;;;;;;;;;;;;;;;;;5052718;28;19940;-92
2022/11/28 06:57:44;;;;;;;;;;;;;;;;;;5034416;28;19921;-89
2022/11/28 07:00:09;;;;;;;;;;;;;;;;;;5052576;28;19978;-87
2022/11/28 07:02:35;;;;;;;;;;;;;;;;;;5051792;28;19987;-89
2022/11/28 07:05:00;;;;;;;;;;;;;;;;;;5052286;28;20466;-87
2022/11/28 07:07:25;;;;;;;;;;;;;;;;;;5051950;28;19927;-90
2022/11/28 07:09:51;;;;;;;;;;;;;;;;;;5051904;28;20394;-89
2022/11/28 07:12:16;;;;;;;;;;;;;;;;;;5052250;28;19923;-90
2022/11/28 07:14:42;;;;;;;;;;;;;;;;;;5051762;28;20000;-86
2022/11/28 07:17:07;;;;;;;;;;;;;;;;;;5052123;28;19924;-88
2022/11/28 07:19:33;;;;;;;;;;;;;;;;;;5053960;28;20459;-90
2022/11/28 07:21:58;;;;;;;;;;;;;;;;;;5056121;28;19921;-87
2022/11/28 07:24:24;;;;;;;;;;;;;;;;;;5038406;28;19917;-90
2022/11/28 07:26:49;;;;;;;;;;;;;;;;;;5041617;28;19925;-88
2022/11/28 07:29:16;;;;;;;;;;;;;;;;;;5037678;28;20388;-85
2022/11/28 07:31:42;;;;;;;;;;;;;;;;;;5050700;28;19928;-86
2022/11/28 07:34:07;;;;;;;;;;;;;;;;;;5056016;28;20272;-87
2022/11/28 07:36:32;;;;;;;;;;;;;;;;;;5037803;28;19925;-85
2022/11/28 07:38:59;;;;;;;;;;;;;;;;;;5055722;28;20368;-83
2022/11/28 07:41:25;;;;;;;;;;;;;;;;;;5055648;28;20403;-83
2022/11/28 07:43:53;;;;;;;;;;;;;;;;;;5055402;28;20007;-85
2022/11/28 07:46:18;;;;;;;;;;;;;;;;;;5055761;28;19976;-88
2022/11/28 07:48:44;;;;;;;;;;;;;;;;;;5055500;28;20610;-89
2022/11/28 07:51:11;;;;;;;;;;;;;;;;;;5056203;28;19935;-89
2022/11/28 07:53:37;;;;;;;;;;;;;;;;;;5055492;28;20003;-87
2022/11/28 07:56:03;;;;;;;;;;;;;;;;;;5037704;28;20415;-88
2022/11/28 07:58:29;;;;;;;;;;;;;;;;;;5055666;28;19921;-89
2022/11/28 08:00:54;;;;;;;;;;;;;;;;;;5055241;28;20388;-87
2022/11/28 08:03:20;;;;;;;;;;;;;;;;;;5055725;28;19974;-91
2022/11/28 08:05:49;;;;;;;;;;;;;;;;;;5055053;28;20386;-88
2022/11/28 08:08:18;;;;;;;;;;;;;;;;;;5055628;28;19917;-89
2022/11/28 08:10:43;;;;;;;;;;;;;;;;;;5054880;28;20007;-88
2022/11/28 08:13:10;;;;;;;;;;;;;;;;;;5055456;28;19983;-89
2022/11/28 08:15:36;;;;;;;;;;;;;;;;;;5054696;28;19921;-86
2022/11/28 08:18:02;;;;;;;;;;;;;;;;;;5055241;28;19916;-88
2022/11/28 08:20:27;;;;;;;;;;;;;;;;;;5055125;28;19917;-89
2022/11/28 08:22:52;;;;;;;;;;;;;;;;;;5054906;28;20344;-89
2022/11/28 08:25:18;;;;;;;;;;;;;;;;;;5037608;28;20363;-88
2022/11/28 08:27:43;;;;;;;;;;;;;;;;;;5055299;28;19963;-88
2022/11/28 08:30:09;;;;;;;;;;;;;;;;;;5054887;28;20364;-90
2022/11/28 08:32:34;;;;;;;;;;;;;;;;;;5055185;28;19913;-88
2022/11/28 08:35:00;;;;;;;;;;;;;;;;;;5056843;28;19920;-88
2022/11/28 08:37:26;;;;;;;;;;;;;;;;;;5069672;28;19921;-89
2022/11/28 08:39:52;;;;;;;;;;;;;;;;;;5068881;28;19927;-85
2022/11/28 08:42:17;;;;;;;;;;;;;;;;;;5050582;28;19916;-85
2022/11/28 08:44:42;;;;;;;;;;;;;;;;;;5068509;28;19974;-88
2022/11/28 08:47:08;;;;;;;;;;;;;;;;;;5066078;28;19921;-89
2022/11/28 08:49:35;;;;;;;;;;;;;;;;;;5038230;28;20381;-89
2022/11/28 08:52:01;;;;;;;;;;;;;;;;;;5055032;28;19921;-88
2022/11/28 08:54:27;;;;;;;;;;;;;;;;;;5037031;28;19917;-90
2022/11/28 08:56:52;;;;;;;;;;;;;;;;;;5054689;28;19970;-88
2022/11/28 08:59:18;;;;;;;;;;;;;;;;;;5055010;28;20380;-89
2022/11/28 09:01:43;;;;;;;;;;;;;;;;;;5054754;28;19917;-91
2022/11/28 09:04:08;;;;;;;;;;;;;;;;;;5054892;28;20336;-87
2022/11/28 09:06:35;;;;;;;;;;;;;;;;;;5054323;28;19956;-85
2022/11/28 09:09:01;;;;;;;;;;;;;;;;;;5054433;28;19921;-88
2022/11/28 09:11:27;;;;;;;;;;;;;;;;;;5036498;28;19959;-87
2022/11/28 09:13:52;;;;;;;;;;;;;;;;;;5036410;28;19968;-88
2022/11/28 09:16:18;;;;;;;;;;;;;;;;;;5054302;28;19917;-88
2022/11/28 09:18:43;;;;;;;;;;;;;;;;;;5054194;28;19921;-89
2022/11/28 09:21:10;;;;;;;;;;;;;;;;;;5054477;28;19921;-89
2022/11/28 09:23:36;;;;;;;;;;;;;;;;;;5054340;28;19950;-89
2022/11/28 09:26:06;;;;;;;;;;;;;;;;;;5054350;28;20265;-87
2022/11/28 09:28:32;;;;;;;;;;;;;;;;;;5054226;28;20433;-91
2022/11/28 09:31:00;;;;;;;;;;;;;;;;;;5053836;28;19917;-91
2022/11/28 09:33:26;;;;;;;;;;;;;;;;;;5054084;28;20385;-87
2022/11/28 09:35:51;;;;;;;;;;;;;;;;;;5053936;28;19999;-87
2022/11/28 09:38:17;;;;;;;;;;;;;;;;;;5036398;28;19924;-88
2022/11/28 09:40:43;;;;;;;;;;;;;;;;;;5052320;28;20368;-88
2022/11/28 09:43:27;;;;;;;;;;;;;;;;;;5053357;28;20011;-88
2022/11/28 09:45:53;;;;;;;;;;;;;;;;;;5054091;28;19924;-88
2022/11/28 09:48:26;;;;;;;;;;;;;;;;;;5053577;28;19924;-85
2022/11/28 09:51:02;;;;;;;;;;;;;;;;;;5053620;28;19927;-87
2022/11/28 09:53:35;;;;;;;;;;;;;;;;;;5053678;28;19917;-87
2022/11/28 09:56:08;;;;;;;;;;;;;;;;;;5053256;28;19928;-86
2022/11/28 09:58:47;;;;;;;;;;;;;;;;;;5053673;28;19926;-89
2022/11/28 10:01:27;;;;;;;;;;;;;;;;;;5052376;28;19917;-88
2022/11/28 10:03:58;;;;;;;;;;;;;;;;;;5053522;28;19962;-87
2022/11/28 10:06:32;;;;;;;;;;;;;;;;;;5058892;28;20015;-89
2022/11/28 10:09:12;;;;;;;;;;;;;;;;;;5073629;28;19923;-88
2022/11/28 10:11:51;;;;;;;;;;;;;;;;;;5073045;28;19939;-88
2022/11/28 10:14:17;;;;;;;;;;;;;;;;;;5055185;28;20344;-88
2022/11/28 10:16:48;;;;;;;;;;;;;;;;;;5051929;28;19917;-88
2022/11/28 10:19:15;;;;;;;;;;;;;;;;;;5032970;28;19917;-87
2022/11/28 10:21:45;;;;;;;;;;;;;;;;;;5033054;28;19921;-88
2022/11/28 10:24:13;;;;;;;;;;;;;;;;;;5032838;28;20300;-88
2022/11/28 10:26:49;;;;;;;;;;;;;;;;;;5033312;28;19953;-89
2022/11/28 10:29:24;;;;;;;;;;;;;;;;;;5033096;28;19918;-88
2022/11/28 10:31:51;;;;;;;;;;;;;;;;;;5032393;28;19920;-90
2022/11/28 10:34:31;;;;;;;;;;;;;;;;;;5032664;28;19921;-89
2022/11/28 10:37:00;;;;;;;;;;;;;;;;;;5015255;28;19964;-87
2022/11/28 10:39:26;;;;;;;;;;;;;;;;;;5014884;28;20377;-89
2022/11/28 10:42:10;;;;;;;;;;;;;;;;;;5032543;28;19925;-87
2022/11/28 10:44:53;;;;;;;;;;;;;;;;;;5032896;28;19917;-88
2022/11/28 10:47:37;;;;;;;;;;;;;;;;;;5014888;28;19995;-88
2022/11/28 10:50:05;;;;;;;;;;;;;;;;;;5014645;28;19944;-88
2022/11/28 10:52:30;;;;;;;;;;;;;;;;;;5021423;28;20311;-87
2022/11/28 10:54:56;;;;;;;;;;;;;;;;;;5034467;28;19913;-87
2022/11/28 10:57:44;;;;;;;;;;;;;;;;;;5052649;28;19917;-87
2022/11/28 11:00:19;;;;;;;;;;;;;;;;;;5052088;28;19928;-90
2022/11/28 11:02:55;;;;;;;;;;;;;;;;;;5052461;28;19924;-88
2022/11/28 11:05:25;;;;;;;;;;;;;;;;;;5052085;28;19928;-88
2022/11/28 11:07:51;;;;;;;;;;;;;;;;;;5052159;28;19920;-86
2022/11/28 11:10:22;;;;;;;;;;;;;;;;;;5052005;28;19963;-89
2022/11/28 11:12:49;;;;;;;;;;;;;;;;;;5034510;28;19924;-89
2022/11/28 11:15:15;;;;;;;;;;;;;;;;;;5051869;28;19917;-88
2022/11/28 11:17:40;;;;;;;;;;;;;;;;;;5052122;28;20275;-88
2022/11/28 11:20:24;;;;;;;;;;;;;;;;;;5051931;28;19921;-88
2022/11/28 11:23:13;;;;;;;;;;;;;;;;;;5051788;28;19944;-90
2022/11/28 11:25:45;;;;;;;;;;;;;;;;;;5036703;28;19917;-87
2022/11/28 11:28:23;;;;;;;;;;;;;;;;;;5032181;28;19928;-88
2022/11/28 11:30:56;;;;;;;;;;;;;;;;;;5032090;28;20292;-88
2022/11/28 11:33:22;;;;;;;;;;;;;;;;;;5031967;28;20003;-89
2022/11/28 11:35:48;;;;;;;;;;;;;;;;;;5035793;28;20016;-89
2022/11/28 11:38:13;;;;;;;;;;;;;;;;;;5050692;28;19916;-88
2022/11/28 11:40:39;;;;;;;;;;;;;;;;;;5051571;28;19923;-88
2022/11/28 11:43:21;;;;;;;;;;;;;;;;;;5052053;28;19916;-89
2022/11/28 11:45:46;;;;;;;;;;;;;;;;;;5052372;28;19917;-88
2022/11/28 11:48:12;;;;;;;;;;;;;;;;;;5052072;28;19986;-88
2022/11/28 11:50:40;;;;;;;;;;;;;;;;;;5052350;28;20434;-88
2022/11/28 11:53:11;;;;;;;;;;;;;;;;;;5051952;28;19963;-88
2022/11/28 11:55:42;;;;;;;;;;;;;;;;;;5052485;28;19916;-89
2022/11/28 11:58:10;;;;;;;;;;;;;;;;;;5051918;28;19928;-89
2022/11/28 12:00:37;;;;;;;;;;;;;;;;;;5052151;28;19916;-89
2022/11/28 12:03:09;;;;;;;;;;;;;;;;;;5051935;28;19939;-88
2022/11/28 12:05:45;;;;;;;;;;;;;;;;;;5054659;28;19923;-88
2022/11/28 12:08:14;;;;;;;;;;;;;;;;;;5063565;28;19932;-87
2022/11/28 12:10:42;;;;;;;;;;;;;;;;;;5055159;28;19921;-90
2022/11/28 12:13:16;;;;;;;;;;;;;;;;;;5055413;28;20000;-89
2022/11/28 12:15:51;;;;;;;;;;;;;;;;;;5037005;28;20368;-90
2022/11/28 12:18:16;;;;;;;;;;;;;;;;;;5055164;28;20351;-90
2022/11/28 12:21:02;;;;;;;;;;;;;;;;;;5055224;28;19920;-90
2022/11/28 12:23:57;;;;;;;;;;;;;;;;;;5054970;28;20361;-89
2022/11/28 12:26:35;;;;;;;;;;;;;;;;;;5041875;28;19924;-90
2022/11/28 12:29:01;;;;;;;;;;;;;;;;;;5055410;28;19924;-86
2022/11/28 12:31:36;;;;;;;;;;;;;;;;;;5055079;28;19917;-88
2022/11/28 12:34:10;;;;;;;;;;;;;;;;;;5055235;28;20380;-87
2022/11/28 12:36:49;;;;;;;;;;;;;;;;;;5037364;28;19917;-88
2022/11/28 12:39:24;;;;;;;;;;;;;;;;;;5037279;28;19916;-89
2022/11/28 12:41:55;;;;;;;;;;;;;;;;;;5056362;28;19917;-88
2022/11/28 12:44:31;;;;;;;;;;;;;;;;;;5039153;28;20435;-89
2022/11/28 12:47:17;;;;;;;;;;;;;;;;;;5063090;28;19909;-89
2022/11/28 12:49:48;;;;;;;;;;;;;;;;;;5063123;28;19916;-87
2022/11/28 12:52:23;;;;;;;;;;;;;;;;;;5061262;28;19917;-88
2022/11/28 12:55:07;;;;;;;;;;;;;;;;;;5047479;28;20056;-86
2022/11/28 12:57:42;;;;;;;;;;;;;;;;;;5056676;28;20409;-88
2022/11/28 13:00:17;;;;;;;;;;;;;;;;;;5055428;28;19924;-87
2022/11/28 13:02:42;;;;;;;;;;;;;;;;;;5054962;28;19921;-87
2022/11/28 13:05:09;;;;;;;;;;;;;;;;;;5054636;28;20379;-86
2022/11/28 13:07:53;;;;;;;;;;;;;;;;;;5054036;28;19999;-85
2022/11/28 13:10:24;;;;;;;;;;;;;;;;;;5054481;28;19916;-88
2022/11/28 13:12:53;;;;;;;;;;;;;;;;;;5054177;28;19974;-88
2022/11/28 13:15:39;;;;;;;;;;;;;;;;;;5053988;28;19916;-88
2022/11/28 13:18:17;;;;;;;;;;;;;;;;;;5040274;28;19967;-85
2022/11/28 13:20:49;;;;;;;;;;;;;;;;;;5054416;28;19920;-90
2022/11/28 13:23:19;;;;;;;;;;;;;;;;;;5053859;28;19975;-90
2022/11/28 13:25:54;;;;;;;;;;;;;;;;;;5054146;28;19917;-85
2022/11/28 13:28:25;;;;;;;;;;;;;;;;;;5049291;28;19927;-87
2022/11/28 13:31:01;;;;;;;;;;;;;;;;;;5033676;28;19929;-87
2022/11/28 13:33:29;;;;;;;;;;;;;;;;;;5034035;28;19917;-89
2022/11/28 13:35:56;;;;;;;;;;;;;;;;;;5035033;28;20003;-84
2022/11/28 13:38:28;;;;;;;;;;;;;;;;;;5034094;28;19917;-88
2022/11/28 13:40:54;;;;;;;;;;;;;;;;;;5034822;28;19924;-87
2022/11/28 13:43:37;;;;;;;;;;;;;;;;;;5035443;28;19917;-87
2022/11/28 13:46:05;;;;;;;;;;;;;;;;;;5033674;28;20253;-89
2022/11/28 13:48:34;;;;;;;;;;;;;;;;;;5033551;28;19987;-87
2022/11/28 13:51:15;;;;;;;;;;;;;;;;;;5032351;28;19952;-86
2022/11/28 13:53:41;;;;;;;;;;;;;;;;;;5033598;28;19928;-87
2022/11/28 13:56:07;;;;;;;;;;;;;;;;;;5033084;28;20499;-88
2022/11/28 13:58:46;;;;;;;;;;;;;;;;;;5033448;28;19996;-86
2022/11/28 14:01:14;;;;;;;;;;;;;;;;;;5033305;28;20418;-87
2022/11/28 14:03:46;;;;;;;;;;;;;;;;;;5033402;28;20381;-85
2022/11/28 14:06:13;;;;;;;;;;;;;;;;;;5033065;28;19972;-87
2022/11/28 14:08:40;;;;;;;;;;;;;;;;;;5033231;28;19917;-89
2022/11/28 14:11:19;;;;;;;;;;;;;;;;;;5032985;28;19918;-87
2022/11/28 14:14:06;;;;;;;;;;;;;;;;;;5032449;28;21402;-89
2022/11/28 14:16:41;;;;;;;;;;;;;;;;;;5032237;28;19917;-87
2022/11/28 14:19:25;;;;;;;;;;;;;;;;;;5032965;28;19953;-85
2022/11/28 14:21:50;;;;;;;;;;;;;;;;;;5032834;28;19928;-89
2022/11/28 14:24:25;;;;;;;;;;;;;;;;;;5019389;28;19917;-85
2022/11/28 14:26:59;;;;;;;;;;;;;;;;;;5052177;28;19920;-86
2022/11/28 14:29:35;;;;;;;;;;;;;;;;;;5044803;28;20392;-89
2022/11/28 14:32:01;;;;;;;;;;;;;;;;;;5032967;28;19924;-88
2022/11/28 14:34:36;;;;;;;;;;;;;;;;;;5032750;28;20285;-88
2022/11/28 14:37:20;;;;;;;;;;;;;;;;;;5032709;28;19917;-90
2022/11/28 14:39:48;;;;;;;;;;;;;;;;;;5032967;28;19917;-89
2022/11/28 14:42:14;;;;;;;;;;;;;;;;;;5032494;28;20383;-89
2022/11/28 14:44:49;;;;;;;;;;;;;;;;;;5034091;28;19925;-90
2022/11/28 14:47:21;;;;;;;;;;;;;;;;;;5032623;28;20403;-89
2022/11/28 14:49:58;;;;;;;;;;;;;;;;;;5032755;28;19917;-88
2022/11/28 14:52:24;;;;;;;;;;;;;;;;;;5032714;28;19921;-89
2022/11/28 14:54:53;;;;;;;;;;;;;;;;;;5042278;28;19923;-89
2022/11/28 14:57:21;;;;;;;;;;;;;;;;;;5052343;28;19917;-89
2022/11/28 14:59:47;;;;;;;;;;;;;;;;;;5051674;28;19924;-89
2022/11/28 15:02:12;;;;;;;;;;;;;;;;;;5052393;28;19917;-86
2022/11/28 15:04:38;;;;;;;;;;;;;;;;;;5055659;28;20006;-86
2022/11/28 15:07:07;;;;;;;;;;;;;;;;;;5062737;28;19927;-86
2022/11/28 15:09:41;;;;;;;;;;;;;;;;;;5073021;28;19921;-86
2022/11/28 15:12:07;;;;;;;;;;;;;;;;;;5072801;28;19921;-85
2022/11/28 15:14:34;;;;;;;;;;;;;;;;;;5054743;28;19987;-85
2022/11/28 15:17:05;;;;;;;;;;;;;;;;;;5054412;28;19923;-85
2022/11/28 15:19:33;;;;;;;;;;;;;;;;;;5072694;28;19966;-86
2022/11/28 15:21:58;;;;;;;;;;;;;;;;;;5061522;28;19925;-86
2022/11/28 15:24:34;;;;;;;;;;;;;;;;;;5049889;28;19978;-84
2022/11/28 15:27:08;;;;;;;;;;;;;;;;;;5030269;28;19921;-87
2022/11/28 15:29:35;;;;;;;;;;;;;;;;;;5029303;28;19921;-85
2022/11/28 15:32:01;;;;;;;;;;;;;;;;;;5031279;28;19964;-86
2022/11/28 15:34:28;;;;;;;;;;;;;;;;;;5047505;28;20065;-86
2022/11/28 15:36:55;;;;;;;;;;;;;;;;;;5029458;28;19932;-86
2022/11/28 15:39:25;;;;;;;;;;;;;;;;;;5048481;28;19951;-88
2022/11/28 15:41:51;;;;;;;;;;;;;;;;;;5052980;28;19920;-86
2022/11/28 15:44:16;;;;;;;;;;;;;;;;;;5053270;28;20012;-88
2022/11/28 15:46:42;;;;;;;;;;;;;;;;;;5053326;28;19956;-89
2022/11/28 15:49:21;;;;;;;;;;;;;;;;;;5048661;28;19963;-87
2022/11/28 15:51:50;;;;;;;;;;;;;;;;;;5052113;28;19928;-87
2022/11/28 15:54:26;;;;;;;;;;;;;;;;;;5052157;28;19938;-87
2022/11/28 15:56:55;;;;;;;;;;;;;;;;;;5052934;28;19939;-88
2022/11/28 15:59:20;;;;;;;;;;;;;;;;;;5034787;28;19921;-87
2022/11/28 16:01:46;;;;;;;;;;;;;;;;;;5052982;28;19920;-87
2022/11/28 16:04:16;;;;;;;;;;;;;;;;;;5052560;28;19947;-88
2022/11/28 16:06:43;;;;;;;;;;;;;;;;;;5034519;28;19932;-89
2022/11/28 16:09:17;;;;;;;;;;;;;;;;;;5052380;28;20395;-88
2022/11/28 16:11:44;;;;;;;;;;;;;;;;;;5052352;28;20624;-87
2022/11/28 16:14:10;;;;;;;;;;;;;;;;;;5052854;28;19928;-89
2022/11/28 16:16:36;;;;;;;;;;;;;;;;;;5038817;28;19917;-86
2022/11/28 16:19:07;;;;;;;;;;;;;;;;;;5036823;28;19916;-87
2022/11/28 16:21:39;;;;;;;;;;;;;;;;;;5036849;28;19928;-87
2022/11/28 16:24:15;;;;;;;;;;;;;;;;;;5054850;28;19927;-86
2022/11/28 16:26:41;;;;;;;;;;;;;;;;;;5047368;28;19997;-89
2022/11/28 16:29:06;;;;;;;;;;;;;;;;;;5060790;22;20051;-90
2022/11/28 16:31:32;;;;;;;;;;;;;;;;;;5056991;28;19921;-87
2022/11/28 16:33:58;;;;;;;;;;;;;;;;;;5075217;28;19971;-86
2022/11/28 16:36:35;;;;;;;;;;;;;;;;;;5056775;28;19920;-88
2022/11/28 16:39:05;;;;;;;;;;;;;;;;;;5075355;28;19928;-84
2022/11/28 16:41:31;;;;;;;;;;;;;;;;;;5075073;28;19921;-86
2022/11/28 16:44:02;;;;;;;;;;;;;;;;;;5075999;28;19923;-86
2022/11/28 16:46:35;;;;;;;;;;;;;;;;;;5058841;28;19920;-87
2022/11/28 16:49:01;;;;;;;;;;;;;;;;;;5077319;28;19917;-87
2022/11/28 16:51:28;;;;;;;;;;;;;;;;;;5077078;28;20003;-87
2022/11/28 16:53:54;;;;;;;;;;;;;;;;;;5050954;28;20393;-88
2022/11/28 16:56:29;;;;;;;;;;;;;;;;;;5069193;28;19923;-87
2022/11/28 16:58:57;;;;;;;;;;;;;;;;;;5057940;28;19928;-87
2022/11/28 17:01:24;;;;;;;;;;;;;;;;;;5052936;28;19928;-86